Time;durP1;ratioP1;P1;durP2;ratioP2;P2;SDS_P1;SDS_P2;PMS_P1;PMS_P2;Temp;Humidity;BMP_temperature;BMP_pressure;BME280_temperature;BME280_humidity;BME280_pressure;Samples;Min_cycle;Max_cycle;Signal;HPM_P1;HPM_P2
2022/03/16 00:02:20;;;;;;;;;17.00;16.50;;;;;12.43;71.48;101431.50;5057667;28;45346;-58
2022/03/16 00:04:52;;;;;;;;;17.20;15.60;;;;;12.45;71.75;101424.72;5056265;28;45562;-56
2022/03/16 00:07:18;;;;;;;;;25.00;21.60;;;;;12.39;71.30;101419.22;5057362;28;46688;-58
2022/03/16 00:09:44;;;;;;;;;19.75;19.75;;;;;12.20;71.62;101389.53;5057640;28;45848;-58
2022/03/16 00:12:10;;;;;;;;;23.00;20.00;;;;;12.41;71.38;101431.72;5072982;27;45436;-55
2022/03/16 00:14:36;;;;;;;;;33.00;28.25;;;;;12.43;71.74;101440.59;5057610;28;45468;-56
2022/03/16 00:17:03;;;;;;;;;25.00;23.40;;;;;12.43;71.66;101434.28;5056931;28;46489;-58
2022/03/16 00:19:28;;;;;;;;;19.40;18.80;;;;;12.44;71.62;101430.44;5056959;28;45786;-56
2022/03/16 00:21:54;;;;;;;;;18.00;18.00;;;;;12.43;71.66;101434.28;5057028;28;45451;-57
2022/03/16 00:24:19;;;;;;;;;17.00;17.00;;;;;12.43;71.64;101426.84;5056159;28;45471;-58
2022/03/16 00:26:45;;;;;;;;;22.75;18.75;;;;;12.42;71.68;101421.53;5056845;28;46368;-58
2022/03/16 00:29:10;;;;;;;;;23.75;20.50;;;;;12.40;71.71;101429.16;5056656;28;45308;-56
2022/03/16 00:31:36;;;;;;;;;22.00;18.50;;;;;12.40;71.70;101418.16;5055974;28;45422;-55
2022/03/16 00:34:01;;;;;;;;;17.00;17.00;;;;;12.24;71.77;101386.34;5057504;28;45273;-58
2022/03/16 00:36:27;;;;;;;;;24.50;18.50;;;;;12.24;71.72;101389.97;5040520;28;45306;-58
2022/03/16 00:38:53;;;;;;;;;17.00;17.00;;;;;12.34;71.59;101420.66;5055437;28;45199;-56
2022/03/16 00:41:18;;;;;;;;;21.25;17.25;;;;;12.34;71.66;101423.41;5054691;28;45416;-57
2022/03/16 00:43:44;;;;;;;;;23.50;21.50;;;;;12.34;71.69;101411.56;5039326;28;45548;-58
2022/03/16 00:46:09;;;;;;;;;18.75;17.00;;;;;12.38;71.64;101415.59;5055447;28;46922;-54
2022/03/16 00:48:35;;;;;;;;;21.75;18.75;;;;;12.40;71.35;101418.16;5056732;28;45651;-55
2022/03/16 00:51:01;;;;;;;;;20.00;17.75;;;;;12.12;71.45;101372.34;5055771;28;45493;-58
2022/03/16 00:53:26;;;;;;;;;23.75;20.50;;;;;12.40;71.44;101413.50;5055880;28;45365;-59
2022/03/16 00:55:52;;;;;;;;;27.50;23.75;;;;;12.25;71.52;101390.78;5056379;28;45658;-58
2022/03/16 00:58:18;;;;;;;;;17.75;17.00;;;;;12.40;71.71;101407.13;5056411;28;45345;-57
2022/03/16 01:00:43;;;;;;;;;21.50;21.50;;;;;12.16;71.13;101355.22;5056656;28;45385;-59
2022/03/16 01:03:09;;;;;;;;;22.75;18.00;;;;;12.41;71.35;101400.56;5055711;28;45453;-58
2022/03/16 01:05:34;;;;;;;;;16.50;16.50;;;;;12.38;71.59;101392.75;5054862;28;46174;-56
2022/03/16 01:08:00;;;;;;;;;15.25;13.00;;;;;12.39;71.05;101397.19;5056721;28;45510;-56
2022/03/16 01:10:25;;;;;;;;;22.00;19.25;;;;;12.19;71.57;101362.19;5072225;27;45461;-59
2022/03/16 01:12:53;;;;;;;;;22.75;19.25;;;;;12.40;71.44;101396.13;5056582;28;45302;-57
2022/03/16 01:15:23;;;;;;;;;19.60;19.40;;;;;12.18;71.48;101353.09;5056399;28;46159;-58
2022/03/16 01:17:51;;;;;;;;;20.60;19.40;;;;;12.42;71.49;101389.34;5056118;27;45480;-57
2022/03/16 01:20:17;;;;;;;;;21.80;18.80;;;;;12.22;71.26;101352.69;5055284;28;45365;-52
2022/03/16 01:22:43;;;;;;;;;23.00;17.60;;;;;12.37;71.12;101372.63;5056543;28;45957;-58
2022/03/16 01:25:08;;;;;;;;;18.50;18.00;;;;;12.40;70.89;101374.97;5055013;28;45699;-57
2022/03/16 01:27:34;;;;;;;;;23.00;19.50;;;;;12.35;71.56;101374.72;5055630;28;45314;-54
2022/03/16 01:29:59;;;;;;;;;22.00;20.25;;;;;12.39;70.87;101366.91;5056147;28;45445;-57
2022/03/16 01:32:25;;;;;;;;;20.75;18.75;;;;;12.39;71.35;101373.25;5055802;28;45288;-58
2022/03/16 01:34:50;;;;;;;;;23.25;18.25;;;;;12.37;71.21;101369.03;5056266;28;46347;-56
2022/03/16 01:37:16;;;;;;;;;19.50;18.00;;;;;12.39;71.24;101361.41;5054788;28;45404;-52
2022/03/16 01:39:41;;;;;;;;;20.75;19.50;;;;;12.37;71.05;101363.53;5054973;28;45456;-55
2022/03/16 01:42:07;;;;;;;;;24.75;19.25;;;;;12.29;71.45;101350.78;5056235;28;45393;-57
2022/03/16 01:44:49;;;;;;;;;22.50;19.50;;;;;12.34;71.04;101360.09;5056031;28;45932;-57
2022/03/16 01:47:16;;;;;;;;;22.20;18.80;;;;;12.33;70.92;101360.34;5054800;28;45398;-54
2022/03/16 01:49:42;;;;;;;;;22.60;20.80;;;;;12.32;71.12;101355.88;5055616;28;45484;-54
2022/03/16 01:52:08;;;;;;;;;20.50;20.50;;;;;12.37;71.02;101360.78;5056150;28;45450;-59
2022/03/16 01:54:34;;;;;;;;;25.00;21.00;;;;;12.36;70.80;101365.41;5020761;28;46127;-59
2022/03/16 01:57:00;;;;;;;;;16.60;16.20;;;;;12.34;70.62;101371.13;5054154;28;45493;-58
2022/03/16 01:59:25;;;;;;;;;22.50;18.00;;;;;12.33;71.01;101368.59;5054845;28;45335;-59
2022/03/16 02:01:51;;;;;;;;;22.25;19.00;;;;;12.34;71.00;101365.63;5055905;28;45260;-56
2022/03/16 02:04:16;;;;;;;;;18.00;18.00;;;;;12.26;70.57;101343.81;5055284;28;45301;-56
2022/03/16 02:06:42;;;;;;;;;22.00;17.25;;;;;12.37;70.66;101366.28;5054118;28;45509;-56
2022/03/16 02:09:07;;;;;;;;;21.75;17.75;;;;;12.32;70.53;101365.00;5055726;28;45286;-58
2022/03/16 02:11:33;;;;;;;;;20.50;19.25;;;;;12.11;70.86;101323.88;5055940;28;45507;-57
2022/03/16 02:13:58;;;;;;;;;19.50;19.50;;;;;12.32;70.39;101355.88;5053982;28;45516;-56
2022/03/16 02:16:24;;;;;;;;;18.75;17.75;;;;;12.29;70.77;101359.91;5055404;28;45230;-58
2022/03/16 02:18:49;;;;;;;;;18.25;18.00;;;;;12.27;70.55;101363.94;5055635;28;45311;-58
2022/03/16 02:21:15;;;;;;;;;23.75;18.75;;;;;12.16;70.51;101337.84;5055830;28;45378;-55
2022/03/16 02:23:41;;;;;;;;;18.80;15.80;;;;;12.17;70.83;101345.88;5055610;28;46216;-57
2022/03/16 02:26:08;;;;;;;;;21.50;18.50;;;;;12.26;70.77;101352.06;5055091;28;45457;-54
2022/03/16 02:28:33;;;;;;;;;18.40;18.00;;;;;12.29;70.67;101356.31;5087417;27;45520;-56
2022/03/16 02:31:00;;;;;;;;;18.50;16.75;;;;;12.28;70.43;101355.44;5055566;28;45369;-56
2022/03/16 02:33:25;;;;;;;;;17.00;17.00;;;;;12.28;70.56;101349.09;5053647;28;46259;-57
2022/03/16 02:35:51;;;;;;;;;22.25;18.50;;;;;12.28;70.24;101349.09;5055574;28;45317;-58
2022/03/16 02:38:17;;;;;;;;;24.75;18.75;;;;;12.22;70.15;101333.44;5054934;28;45342;-55
2022/03/16 02:40:42;;;;;;;;;21.25;18.25;;;;;11.68;69.92;101248.81;5055661;28;45437;-57
2022/03/16 02:43:08;;;;;;;;;22.50;19.50;;;;;12.24;70.60;101339.56;5053518;27;45501;-57
2022/03/16 02:45:33;;;;;;;;;25.50;21.50;;;;;12.23;70.67;101337.88;5055329;28;45199;-57
2022/03/16 02:47:59;;;;;;;;;17.75;16.50;;;;;12.16;70.66;101321.31;5054781;28;45164;-56
2022/03/16 02:50:25;;;;;;;;;23.50;19.50;;;;;12.11;70.63;101324.72;5055151;28;45222;-54
2022/03/16 02:52:50;;;;;;;;;19.60;17.00;;;;;12.08;70.78;101314.13;5054944;28;45884;-56
2022/03/16 02:55:16;;;;;;;;;19.50;15.75;;;;;12.20;70.55;101336.38;5053677;28;45448;-59
2022/03/16 02:57:42;;;;;;;;;17.00;16.25;;;;;12.20;70.87;101333.63;5054729;28;45408;-57
2022/03/16 03:00:08;;;;;;;;;23.25;19.75;;;;;12.19;70.68;101340.19;5055160;28;45422;-58
2022/03/16 03:02:35;;;;;;;;;25.60;24.60;;;;;12.17;70.34;101336.81;5054641;28;46221;-58
2022/03/16 03:05:00;;;;;;;;;37.60;32.20;;;;;12.14;70.63;101338.06;5038799;28;45801;-56
2022/03/16 03:07:26;;;;;;;;;40.00;34.25;;;;;12.07;70.67;101324.28;5062273;28;45350;-57
2022/03/16 03:09:51;;;;;;;;;49.00;37.00;;;;;12.13;70.36;101346.53;5032031;28;45353;-56
2022/03/16 03:12:17;;;;;;;;;37.50;34.50;;;;;12.13;70.73;101332.75;5032262;28;45549;-56
2022/03/16 03:14:42;;;;;;;;;47.25;37.00;;;;;12.13;70.87;101338.25;5032476;28;45342;-56
2022/03/16 03:17:08;;;;;;;;;47.25;39.50;;;;;12.13;70.82;101341.88;5033096;28;45365;-59
2022/03/16 03:19:34;;;;;;;;;42.50;36.50;;;;;11.90;70.85;101306.44;5034976;28;45386;-57
2022/03/16 03:21:59;;;;;;;;;44.00;36.25;;;;;12.12;71.07;101339.31;5034477;28;45984;-54
2022/03/16 03:24:25;;;;;;;;;31.25;29.50;;;;;12.13;70.83;101335.50;5033296;28;45402;-56
2022/03/16 03:26:50;;;;;;;;;37.50;34.50;;;;;12.07;70.68;101331.69;5034513;28;45280;-58
2022/03/16 03:29:16;;;;;;;;;22.50;22.50;;;;;12.09;70.66;101328.72;5034172;28;45608;-58
2022/03/16 03:31:42;;;;;;;;;47.75;37.75;;;;;12.05;71.03;101331.91;5034589;28;46153;-56
2022/03/16 03:34:07;;;;;;;;;45.00;37.00;;;;;12.05;70.51;101331.91;5034223;28;45429;-57
2022/03/16 03:36:33;;;;;;;;;33.00;31.50;;;;;11.85;70.84;101301.53;5034658;28;45453;-55
2022/03/16 03:38:58;;;;;;;;;36.50;32.50;;;;;12.04;70.93;101340.34;5033022;28;45370;-56
2022/03/16 03:41:24;;;;;;;;;35.25;32.75;;;;;12.00;71.12;101331.63;5034116;28;45543;-56
2022/03/16 03:43:49;;;;;;;;;24.25;23.50;;;;;11.82;70.95;101317.59;5034291;28;45326;-57
2022/03/16 03:46:15;;;;;;;;;38.75;32.25;;;;;12.00;71.26;101337.13;5034333;28;45786;-58
2022/03/16 03:48:40;;;;;;;;;34.25;26.00;;;;;11.71;70.89;101291.56;5034377;28;45884;-56
2022/03/16 03:51:06;;;;;;;;;29.00;27.50;;;;;12.01;71.18;101347.09;5033755;28;46062;-59
2022/03/16 03:53:32;;;;;;;;;36.75;28.75;;;;;11.97;71.05;101339.47;5034436;28;45430;-55
2022/03/16 03:55:58;;;;;;;;;35.00;31.20;;;;;12.01;71.21;101343.50;5037111;28;45572;-55
2022/03/16 03:58:23;;;;;;;;;26.25;25.00;;;;;11.99;71.34;101338.19;5036815;28;45442;-58
2022/03/16 04:00:49;;;;;;;;;25.75;24.00;;;;;12.00;70.96;101342.63;5037127;28;45633;-60
2022/03/16 04:03:15;;;;;;;;;26.75;24.00;;;;;11.97;71.06;101336.72;5052881;28;45380;-55
2022/03/16 04:05:41;;;;;;;;;27.00;23.80;;;;;11.85;71.25;101315.28;5057916;28;45430;-58
2022/03/16 04:08:06;;;;;;;;;29.50;25.25;;;;;11.90;71.01;101333.94;5057756;28;45455;-59
2022/03/16 04:10:32;;;;;;;;;20.00;18.75;;;;;11.93;71.27;101328.03;5057638;28;45433;-56
2022/03/16 04:12:58;;;;;;;;;26.75;25.75;;;;;11.90;71.01;101325.69;5057182;28;45450;-52
2022/03/16 04:15:23;;;;;;;;;24.75;22.50;;;;;11.68;71.04;101280.97;5057718;28;45455;-56
2022/03/16 04:17:49;;;;;;;;;24.25;23.00;;;;;11.85;71.01;101306.22;5057286;28;45434;-57
2022/03/16 04:20:14;;;;;;;;;27.50;22.50;;;;;11.85;71.04;101311.72;5057290;28;45680;-55
2022/03/16 04:22:40;;;;;;;;;25.25;24.00;;;;;11.77;71.26;101293.47;5057187;28;45471;-56
2022/03/16 04:25:06;;;;;;;;;28.50;26.00;;;;;11.83;71.38;101313.78;5057350;28;45397;-57
2022/03/16 04:27:31;;;;;;;;;26.00;21.40;;;;;11.82;71.58;101303.84;5057494;28;45359;-55
2022/03/16 04:29:57;;;;;;;;;29.50;21.50;;;;;11.80;71.39;101310.41;5056835;28;46457;-55
2022/03/16 04:32:22;;;;;;;;;31.25;25.25;;;;;11.28;71.24;101221.19;5056015;28;45385;-54
2022/03/16 04:34:48;;;;;;;;;27.50;24.00;;;;;11.72;71.59;101291.34;5056928;28;45380;-58
2022/03/16 04:37:14;;;;;;;;;27.50;23.25;;;;;11.79;71.61;101307.84;5057314;28;45626;-56
2022/03/16 04:39:39;;;;;;;;;25.75;25.75;;;;;11.76;71.95;101298.16;5055656;28;46005;-55
2022/03/16 04:42:05;;;;;;;;;27.00;23.50;;;;;11.61;71.96;101267.19;5055150;28;45386;-58
2022/03/16 04:44:30;;;;;;;;;22.00;21.50;;;;;11.58;72.11;101264.88;5057173;28;45314;-55
2022/03/16 04:46:56;;;;;;;;;27.25;20.50;;;;;11.73;71.49;101292.19;5057212;28;45523;-55
2022/03/16 04:49:21;;;;;;;;;25.75;22.00;;;;;11.69;71.81;101290.91;5055331;28;46147;-56
2022/03/16 04:51:47;;;;;;;;;24.00;21.50;;;;;11.66;71.85;101286.69;5056684;28;45476;-58
2022/03/16 04:54:14;;;;;;;;;25.50;24.75;;;;;11.69;71.81;101294.50;5056726;28;45374;-57
2022/03/16 04:56:40;;;;;;;;;25.80;21.20;;;;;11.68;71.60;101309.31;5056133;28;45513;-59
2022/03/16 04:59:05;;;;;;;;;27.25;23.75;;;;;11.66;72.34;101305.94;5049350;28;46141;-57
2022/03/16 05:01:31;;;;;;;;;24.00;22.50;;;;;11.65;71.86;101312.47;5055971;28;45382;-55
2022/03/16 05:03:56;;;;;;;;;30.25;24.00;;;;;11.57;72.21;101299.75;5053967;28;45445;-54
2022/03/16 05:06:22;;;;;;;;;18.75;18.50;;;;;11.62;71.76;101302.75;5055098;28;45535;-58
2022/03/16 05:08:48;;;;;;;;;27.50;23.25;;;;;11.40;71.62;101269.03;5055987;27;45964;-55
2022/03/16 05:11:14;;;;;;;;;26.50;23.75;;;;;11.57;72.01;101286.00;5052210;28;45282;-55
2022/03/16 05:13:40;;;;;;;;;23.60;21.20;;;;;11.57;72.59;101286.00;5071752;27;45806;-58
2022/03/16 05:16:06;;;;;;;;;28.20;26.60;;;;;11.43;72.11;101265.03;5056160;28;45599;-54
2022/03/16 05:18:33;;;;;;;;;24.00;23.40;;;;;11.61;72.11;101289.19;5054456;28;46042;-57
2022/03/16 05:20:59;;;;;;;;;26.00;24.80;;;;;11.59;72.45;101286.63;5054443;28;45467;-57
2022/03/16 05:23:24;;;;;;;;;26.50;22.50;;;;;11.51;72.16;101273.94;5056801;28;45439;-60
2022/03/16 05:25:50;;;;;;;;;27.50;21.50;;;;;11.40;71.86;101269.03;5053989;28;45842;-57
2022/03/16 05:28:16;;;;;;;;;29.00;24.75;;;;;11.57;72.04;101304.41;5056182;28;45444;-56
2022/03/16 05:30:42;;;;;;;;;28.80;23.80;;;;;11.47;72.48;101294.63;5056239;28;45251;-53
2022/03/16 05:33:08;;;;;;;;;23.00;22.00;;;;;11.52;71.80;101308.63;5056517;28;45290;-58
2022/03/16 05:35:34;;;;;;;;;27.00;23.50;;;;;11.43;72.13;101298.88;5056441;28;45405;-58
2022/03/16 05:38:02;;;;;;;;;29.40;24.80;;;;;11.31;72.65;101295.00;5055243;28;47412;-57
2022/03/16 05:40:28;;;;;;;;;26.20;21.20;;;;;11.38;72.30;101307.69;5055828;28;45360;-57
2022/03/16 05:42:53;;;;;;;;;28.75;23.50;;;;;11.27;72.20;101299.19;5072212;27;45319;-58
2022/03/16 05:45:19;;;;;;;;;26.25;25.75;;;;;11.31;72.44;101316.97;5055216;28;45432;-57
2022/03/16 05:47:44;;;;;;;;;26.25;22.50;;;;;11.26;72.78;101314.81;5056149;28;46649;-58
2022/03/16 05:50:10;;;;;;;;;25.00;24.00;;;;;11.33;72.56;101318.47;5054621;28;45452;-57
2022/03/16 05:52:35;;;;;;;;;27.50;24.75;;;;;11.34;72.61;101317.41;5056117;28;45436;-52
2022/03/16 05:55:01;;;;;;;;;27.00;23.00;;;;;11.27;72.93;101305.53;5056231;28;45575;-56
2022/03/16 05:57:27;;;;;;;;;27.25;24.50;;;;;11.21;72.75;101289.88;5054516;28;45544;-58
2022/03/16 05:59:52;;;;;;;;;28.00;23.25;;;;;11.37;72.56;101314.25;5056110;28;45278;-56
2022/03/16 06:02:18;;;;;;;;;34.50;29.75;;;;;11.38;72.58;101317.84;5056228;28;45111;-56
2022/03/16 06:04:44;;;;;;;;;36.00;28.50;;;;;11.37;73.13;101316.16;5056287;28;45188;-55
2022/03/16 06:07:09;;;;;;;;;32.25;26.25;;;;;11.20;72.43;101282.69;5054595;28;46828;-54
2022/03/16 06:09:35;;;;;;;;;35.25;29.00;;;;;11.33;72.76;101309.38;5054248;28;45651;-54
2022/03/16 06:12:00;;;;;;;;;29.50;26.00;;;;;11.34;72.15;101322.91;5056007;28;45372;-52
2022/03/16 06:14:26;;;;;;;;;26.75;25.25;;;;;11.00;72.51;101266.94;5054597;28;45355;-57
2022/03/16 06:16:52;;;;;;;;;29.00;24.50;;;;;11.18;72.38;101298.50;5055576;28;46458;-54
2022/03/16 06:19:21;;;;;;;;;32.20;26.60;;;;;11.29;72.83;101308.94;5054464;28;45372;-52
2022/03/16 06:21:47;;;;;;;;;36.60;29.60;;;;;11.39;72.78;101316.81;5054450;28;45287;-54
2022/03/16 06:24:12;;;;;;;;;36.75;31.75;;;;;11.39;72.62;101309.38;5038008;28;45298;-56
2022/03/16 06:26:39;;;;;;;;;27.00;25.25;;;;;11.10;72.51;101263.81;5055517;28;46330;-56
2022/03/16 06:29:05;;;;;;;;;28.20;27.40;;;;;11.37;72.05;101325.25;5054245;28;45337;-54
2022/03/16 06:31:30;;;;;;;;;26.80;25.60;;;;;11.19;72.91;101291.94;5055691;28;45431;-52
2022/03/16 06:33:56;;;;;;;;;29.75;27.50;;;;;11.37;72.81;101329.91;5055944;28;45303;-58
2022/03/16 06:36:21;;;;;;;;;31.50;26.50;;;;;11.42;72.18;101332.88;5055495;28;45477;-57
2022/03/16 06:38:47;;;;;;;;;28.00;25.75;;;;;11.36;72.47;101330.94;5055348;28;45471;-56
2022/03/16 06:41:12;;;;;;;;;31.25;26.50;;;;;11.36;72.53;101336.44;5054551;28;45466;-56
2022/03/16 06:43:38;;;;;;;;;30.50;23.75;;;;;11.37;72.70;101336.22;5054373;28;45506;-58
2022/03/16 06:46:03;;;;;;;;;37.75;31.00;;;;;11.40;72.71;101343.22;5055206;28;46411;-59
2022/03/16 06:48:29;;;;;;;;;29.50;25.75;;;;;11.19;72.55;101312.03;5055477;28;45448;-54
2022/03/16 06:50:54;;;;;;;;;35.00;28.75;;;;;11.24;72.41;101322.41;5053694;28;45287;-58
2022/03/16 06:53:20;;;;;;;;;31.75;30.00;;;;;11.40;72.57;101354.22;5055703;28;45278;-57
2022/03/16 06:55:45;;;;;;;;;33.75;29.00;;;;;11.33;72.29;101336.84;5054376;28;46497;-53
2022/03/16 06:58:11;;;;;;;;;29.75;28.50;;;;;11.46;72.43;101358.91;5054985;28;45374;-52
2022/03/16 07:00:36;;;;;;;;;38.25;29.00;;;;;11.18;71.64;101318.59;5054827;28;45376;-54
2022/03/16 07:03:03;;;;;;;;;31.50;26.25;;;;;11.42;72.12;101362.28;5055118;28;45600;-61
2022/03/16 07:05:36;;;;;;;;;30.20;29.60;;;;;11.41;72.57;101355.91;5054796;28;46242;-55
2022/03/16 07:08:12;;;;;;;;;31.40;28.60;;;;;11.47;71.94;101359.78;5034628;28;45392;-57
2022/03/16 07:10:40;;;;;;;;;29.80;27.00;;;;;11.49;72.41;101353.00;5034648;28;45373;-55
2022/03/16 07:13:06;;;;;;;;;29.60;26.80;;;;;11.50;72.51;101348.34;5035050;28;45380;-55
2022/03/16 07:15:32;;;;;;;;;32.20;28.60;;;;;11.50;71.86;101354.72;5034310;28;45603;-56
2022/03/16 07:17:58;;;;;;;;;32.20;26.20;;;;;11.52;71.90;101352.59;5033572;28;45364;-53
2022/03/16 07:20:24;;;;;;;;;31.00;29.00;;;;;11.51;71.98;101348.16;5034184;28;45479;-54
2022/03/16 07:23:23;;;;;;;;;36.00;30.00;;;;;11.53;71.90;101353.47;5016892;28;45514;-58
2022/03/16 07:25:49;;;;;;;;;35.40;29.00;;;;;11.49;72.08;101353.00;5021920;28;46161;-58
2022/03/16 07:28:16;;;;;;;;;35.75;28.75;;;;;11.52;72.31;101346.25;5034195;28;45352;-55
2022/03/16 07:30:44;;;;;;;;;34.80;27.60;;;;;11.52;71.78;101358.09;5038176;28;45673;-58
2022/03/16 07:33:10;;;;;;;;;30.40;29.40;;;;;11.57;71.44;101357.47;5036882;28;45421;-58
2022/03/16 07:35:36;;;;;;;;;29.75;27.75;;;;;11.54;71.74;101355.16;5037609;28;45916;-57
2022/03/16 07:38:02;;;;;;;;;34.25;31.00;;;;;11.56;71.39;101352.19;5008234;28;45441;-60
2022/03/16 07:40:28;;;;;;;;;33.00;28.60;;;;;11.60;71.96;101364.47;5055353;28;45770;-60
2022/03/16 07:42:54;;;;;;;;;29.80;27.20;;;;;11.53;71.15;101343.28;5057843;27;45316;-58
2022/03/16 07:45:20;;;;;;;;;31.75;25.25;;;;;11.65;71.59;101354.56;5006283;28;46252;-58
2022/03/16 07:47:49;;;;;;;;;31.75;28.25;;;;;11.68;71.66;101358.81;5056879;28;45346;-59
2022/03/16 07:50:15;;;;;;;;;38.40;29.40;;;;;11.70;71.54;101362.22;5057608;27;45432;-64
2022/03/16 07:52:40;;;;;;;;;32.00;28.60;;;;;11.37;71.36;101310.66;5073790;27;45633;-59
2022/03/16 07:55:07;;;;;;;;;35.00;30.00;;;;;11.69;71.53;101362.41;5073027;27;47317;-60
2022/03/16 07:57:33;;;;;;;;;34.60;30.80;;;;;11.66;71.45;101358.16;5056100;28;45428;-61
2022/03/16 07:59:59;;;;;;;;;29.25;26.50;;;;;11.65;71.85;101356.47;5056380;28;45357;-60
2022/03/16 08:02:27;;;;;;;;;36.75;32.00;;;;;11.66;71.58;101358.16;5072405;27;45686;-58
2022/03/16 08:04:52;;;;;;;;;33.60;30.20;;;;;11.66;71.80;101353.53;5050013;28;45611;-58
2022/03/16 08:07:18;;;;;;;;;39.25;29.25;;;;;11.65;71.13;101356.47;5053156;28;45555;-56
2022/03/16 08:09:43;;;;;;;;;39.25;34.25;;;;;11.64;71.58;101354.78;5052029;28;45772;-55
2022/03/16 08:12:09;;;;;;;;;34.75;30.25;;;;;11.39;71.04;101309.38;5053379;28;45566;-55
2022/03/16 08:14:34;;;;;;;;;35.00;31.25;;;;;11.58;71.14;101353.69;5052497;28;46569;-56
2022/03/16 08:17:00;;;;;;;;;31.75;28.75;;;;;11.50;71.07;101338.22;5051328;28;45440;-58
2022/03/16 08:19:25;;;;;;;;;36.50;33.75;;;;;11.44;71.36;101330.78;5051837;28;45616;-52
2022/03/16 08:21:51;;;;;;;;;39.25;34.50;;;;;11.53;71.30;101342.47;5051767;28;45596;-58
2022/03/16 08:24:17;;;;;;;;;37.00;35.00;;;;;11.53;71.76;101331.47;5052674;28;45764;-57
2022/03/16 08:26:43;;;;;;;;;33.20;30.40;;;;;11.58;71.54;101344.59;5052558;28;45500;-57
2022/03/16 08:29:08;;;;;;;;;30.50;29.75;;;;;11.50;71.51;101318.97;5053241;28;45914;-59
2022/03/16 08:31:34;;;;;;;;;35.75;28.25;;;;;11.62;71.70;101332.13;5052971;28;45491;-57
2022/03/16 08:34:01;;;;;;;;;35.50;29.75;;;;;11.69;71.33;101333.00;5051507;28;45492;-53
2022/03/16 08:36:26;;;;;;;;;36.40;30.60;;;;;11.56;70.87;101316.44;5052545;28;45787;-51
2022/03/16 08:38:52;;;;;;;;;34.75;29.75;;;;;11.73;70.87;101344.44;5045257;28;45646;-53
2022/03/16 08:41:18;;;;;;;;;35.50;33.50;;;;;11.65;70.85;101334.47;5001946;28;45718;-53
2022/03/16 08:43:44;;;;;;;;;32.75;27.25;;;;;11.73;70.99;101353.53;5024648;28;47136;-58
2022/03/16 08:46:10;;;;;;;;;36.80;30.80;;;;;11.69;70.69;101352.25;5029903;28;45503;-54
2022/03/16 08:48:37;;;;;;;;;30.20;27.20;;;;;11.70;71.09;101359.47;5031638;28;45460;-54
2022/03/16 08:51:03;;;;;;;;;40.00;30.40;;;;;11.75;70.94;101365.19;5031767;28;45430;-53
2022/03/16 08:53:28;;;;;;;;;32.00;28.25;;;;;11.75;69.99;101369.84;5029259;28;46002;-55
2022/03/16 08:55:54;;;;;;;;;33.75;29.25;;;;;11.73;70.41;101364.53;5031317;28;45369;-55
2022/03/16 08:58:19;;;;;;;;;41.25;32.50;;;;;11.76;70.59;101371.53;5031204;28;45336;-60
2022/03/16 09:00:45;;;;;;;;;36.75;32.25;;;;;11.73;70.28;101381.03;5032361;28;45408;-60
2022/03/16 09:03:10;;;;;;;;;36.25;32.00;;;;;11.70;70.72;101367.72;5030501;28;46857;-58
2022/03/16 09:05:36;;;;;;;;;38.75;33.25;;;;;11.78;70.93;101384.03;5031528;28;45770;-57
2022/03/16 09:08:03;;;;;;;;;44.25;33.75;;;;;11.86;70.22;101379.41;5032059;28;45652;-58
2022/03/16 09:10:28;;;;;;;;;33.60;32.00;;;;;11.86;69.94;101380.28;5031265;28;45596;-59
2022/03/16 09:12:54;;;;;;;;;37.75;32.00;;;;;11.86;70.46;101373.91;5032012;28;46075;-60
2022/03/16 09:15:19;;;;;;;;;48.75;37.00;;;;;11.77;70.26;101364.97;5032392;28;45703;-59
2022/03/16 09:17:45;;;;;;;;;36.75;32.50;;;;;11.81;69.81;101374.53;5032262;28;45535;-59
2022/03/16 09:20:10;;;;;;;;;37.25;33.25;;;;;11.78;70.14;101374.94;5031073;28;45430;-59
2022/03/16 09:22:36;;;;;;;;;36.00;34.75;;;;;11.85;70.13;101380.47;5030963;28;46500;-60
2022/03/16 09:25:02;;;;;;;;;30.00;29.50;;;;;11.88;69.95;101374.53;5030553;28;45867;-58
2022/03/16 09:27:27;;;;;;;;;34.50;31.75;;;;;11.91;69.81;101374.16;5032355;28;45386;-60
2022/03/16 09:29:55;;;;;;;;;42.75;35.00;;;;;12.00;69.67;101370.16;5031944;28;45359;-59
2022/03/16 09:32:21;;;;;;;;;48.80;35.80;;;;;11.94;69.15;101357.22;5031896;28;45772;-58
2022/03/16 09:34:48;;;;;;;;;38.40;34.20;;;;;12.07;69.36;101372.97;5029461;28;46262;-59
2022/03/16 09:37:13;;;;;;;;;37.60;31.60;;;;;11.87;69.15;101340.72;5013779;28;45904;-59
2022/03/16 09:39:39;;;;;;;;;40.50;36.75;;;;;12.06;69.02;101371.25;5031939;28;45525;-59
2022/03/16 09:42:05;;;;;;;;;43.00;37.00;;;;;12.14;69.39;101378.47;5031540;28;45787;-60
2022/03/16 09:44:31;;;;;;;;;48.25;39.75;;;;;12.04;68.60;101357.72;5032018;28;45556;-58
2022/03/16 09:46:57;;;;;;;;;40.25;33.50;;;;;12.06;68.65;101355.59;5030508;28;45835;-59
2022/03/16 09:49:23;;;;;;;;;39.80;34.80;;;;;12.12;68.74;101364.91;5000014;28;45449;-58
2022/03/16 09:51:49;;;;;;;;;40.20;34.00;;;;;12.14;68.76;101354.56;5029460;28;48151;-59
2022/03/16 09:54:15;;;;;;;;;39.60;35.60;;;;;12.04;68.47;101330.22;5046697;28;45432;-59
2022/03/16 09:56:40;;;;;;;;;36.25;34.75;;;;;12.24;68.56;101356.94;5029916;28;45422;-59
2022/03/16 09:59:06;;;;;;;;;44.00;35.00;;;;;12.26;68.94;101351.19;5045772;28;45681;-62
2022/03/16 10:01:34;;;;;;;;;36.00;32.75;;;;;12.26;68.54;101341.03;5031421;28;45709;-59
2022/03/16 10:04:00;;;;;;;;;31.20;29.40;;;;;12.40;68.92;101358.44;5031221;28;45504;-60
2022/03/16 10:06:26;;;;;;;;;41.00;35.50;;;;;12.47;68.93;101356.56;5029598;28;45483;-58
2022/03/16 10:14:19;;;;;;;;;36.40;32.60;;;;;12.65;68.29;101354.22;5030071;28;45456;-56
2022/03/16 10:19:48;;;;;;;;;43.20;37.40;;;;;12.73;67.86;101349.38;5031468;28;45492;-59
2022/03/16 10:22:38;;;;;;;;;46.60;37.00;;;;;12.77;67.79;101348.94;5027962;28;46420;-59
2022/03/16 10:25:06;;;;;;;;;41.80;36.80;;;;;12.66;67.42;101322.88;5029417;28;45741;-59
2022/03/16 10:27:38;;;;;;;;;38.00;34.20;;;;;12.85;67.57;101348.72;5030763;28;45392;-57
2022/03/16 10:30:08;;;;;;;;;41.80;37.20;;;;;12.88;66.96;101357.41;5031020;28;45452;-57
2022/03/16 10:32:34;;;;;;;;;46.00;36.20;;;;;12.86;67.46;101343.00;5029224;28;45874;-59
2022/03/16 10:35:04;;;;;;;;;39.50;32.50;;;;;12.96;66.74;101348.06;5028373;28;45536;-58
2022/03/16 10:37:31;;;;;;;;;41.00;34.20;;;;;12.81;67.16;101329.00;5030979;28;45695;-59
2022/03/16 10:39:58;;;;;;;;;40.80;32.40;;;;;13.02;66.65;101349.13;5030698;28;45340;-58
2022/03/16 10:48:16;;;;;;;;;38.60;34.20;;;;;13.16;66.41;101344.44;5028989;28;45537;-56
2022/03/16 10:50:42;;;;;;;;;44.80;35.60;;;;;13.21;66.45;101330.03;5029131;28;45581;-56
2022/03/16 10:53:12;;;;;;;;;30.00;25.60;;;;;13.25;66.34;101342.31;5027682;28;45789;-58
2022/03/16 10:55:38;;;;;;;;;37.80;35.40;;;;;13.31;65.79;101327.69;5026620;28;45506;-58
2022/03/16 10:58:05;;;;;;;;;38.20;28.80;;;;;13.09;65.58;101278.34;5029524;28;45496;-58
2022/03/16 11:00:30;;;;;;;;;40.80;35.40;;;;;13.14;65.41;101267.50;5029884;28;45533;-57
2022/03/16 11:02:56;;;;;;;;;40.75;35.25;;;;;13.49;65.82;101306.84;5029347;28;46588;-57
2022/03/16 11:05:22;;;;;;;;;41.00;34.75;;;;;13.48;65.54;101303.25;5022825;28;45513;-56
2022/03/16 11:07:49;;;;;;;;;38.60;33.40;;;;;13.40;65.54;101271.22;5034147;28;45789;-54
2022/03/16 11:10:15;;;;;;;;;40.80;33.80;;;;;13.66;65.88;101298.97;5033178;28;45754;-55
2022/03/16 11:15:25;;;;;;;;;37.80;34.40;;;;;13.61;64.62;101258.22;5021068;28;45419;-61
2022/03/16 11:17:53;;;;;;;;;40.50;35.00;;;;;13.81;64.70;101291.22;5012517;28;45418;-52
2022/03/16 11:20:19;;;;;;;;;39.20;34.20;;;;;13.87;64.81;101297.78;5023570;27;45437;-58
2022/03/16 11:24:15;;;;;;;;;38.50;33.75;;;;;13.94;64.13;101293.06;5030004;28;45465;-55